sensor_id;sensor_type;location;lat;lon;timestamp;pressure;altitude;pressure_sealevel;temperature;humidity
15477;BME280;7840;42.702;23.296;2022-07-25T00:01:23;95126.06;;;24.83;64.16
15477;BME280;7840;42.702;23.296;2022-07-25T00:03:51;95122.50;;;24.91;63.87
15477;BME280;7840;42.702;23.296;2022-07-25T00:06:19;95115.41;;;25.11;63.07
15477;BME280;7840;42.702;23.296;2022-07-25T00:08:47;95116.81;;;24.96;63.26
15477;BME280;7840;42.702;23.296;2022-07-25T00:11:16;95110.97;;;24.94;63.40
15477;BME280;7840;42.702;23.296;2022-07-25T00:13:43;95121.44;;;24.71;64.38
15477;BME280;7840;42.702;23.296;2022-07-25T00:16:11;95116.75;;;24.60;65.07
15477;BME280;7840;42.702;23.296;2022-07-25T00:18:38;95119.84;;;24.37;65.93
15477;BME280;7840;42.702;23.296;2022-07-25T00:21:06;95117.56;;;24.60;64.97
15477;BME280;7840;42.702;23.296;2022-07-25T00:23:33;95112.72;;;24.66;64.66
15477;BME280;7840;42.702;23.296;2022-07-25T00:26:11;95114.16;;;24.63;65.09
15477;BME280;7840;42.702;23.296;2022-07-25T00:28:41;95105.56;;;24.28;66.86
15477;BME280;7840;42.702;23.296;2022-07-25T00:31:08;95113.31;;;24.38;66.53
15477;BME280;7840;42.702;23.296;2022-07-25T00:33:37;95095.41;;;24.25;66.89
15477;BME280;7840;42.702;23.296;2022-07-25T00:36:06;95097.09;;;24.50;66.11
15477;BME280;7840;42.702;23.296;2022-07-25T00:38:34;95088.50;;;24.48;66.30
15477;BME280;7840;42.702;23.296;2022-07-25T00:41:02;95088.75;;;24.43;66.27
15477;BME280;7840;42.702;23.296;2022-07-25T00:43:30;95089.13;;;24.33;67.20
15477;BME280;7840;42.702;23.296;2022-07-25T00:45:59;95081.41;;;24.23;67.06
15477;BME280;7840;42.702;23.296;2022-07-25T00:48:27;95095.09;;;24.06;68.48
15477;BME280;7840;42.702;23.296;2022-07-25T00:50:56;95088.75;;;24.01;68.64
15477;BME280;7840;42.702;23.296;2022-07-25T00:53:25;95091.44;;;24.01;68.98
15477;BME280;7840;42.702;23.296;2022-07-25T00:55:53;95093.38;;;24.01;68.91
15477;BME280;7840;42.702;23.296;2022-07-25T00:58:21;95084.19;;;24.14;68.57
15477;BME280;7840;42.702;23.296;2022-07-25T01:00:48;95087.38;;;24.16;68.55
15477;BME280;7840;42.702;23.296;2022-07-25T01:03:18;95091.19;;;23.94;69.33
15477;BME280;7840;42.702;23.296;2022-07-25T01:05:48;95086.28;;;24.09;69.33
15477;BME280;7840;42.702;23.296;2022-07-25T01:08:17;95089.06;;;24.21;68.56
15477;BME280;7840;42.702;23.296;2022-07-25T01:10:46;95091.72;;;24.09;68.83
15477;BME280;7840;42.702;23.296;2022-07-25T01:13:14;95091.53;;;23.93;69.51
15477;BME280;7840;42.702;23.296;2022-07-25T01:15:43;95077.47;;;23.99;69.01
15477;BME280;7840;42.702;23.296;2022-07-25T01:18:13;95084.34;;;23.97;69.45
15477;BME280;7840;42.702;23.296;2022-07-25T01:20:45;95077.91;;;24.01;69.28
15477;BME280;7840;42.702;23.296;2022-07-25T01:23:13;95081.03;;;23.91;69.81
15477;BME280;7840;42.702;23.296;2022-07-25T01:25:40;95086.78;;;23.90;69.79
15477;BME280;7840;42.702;23.296;2022-07-25T01:28:08;95089.88;;;24.00;69.40
15477;BME280;7840;42.702;23.296;2022-07-25T01:30:36;95088.97;;;23.96;69.30
15477;BME280;7840;42.702;23.296;2022-07-25T01:33:03;95081.84;;;23.92;69.84
15477;BME280;7840;42.702;23.296;2022-07-25T01:35:31;95086.44;;;23.91;69.60
15477;BME280;7840;42.702;23.296;2022-07-25T01:38:00;95082.56;;;23.80;70.30
15477;BME280;7840;42.702;23.296;2022-07-25T01:40:28;95082.50;;;23.68;70.87
15477;BME280;7840;42.702;23.296;2022-07-25T01:42:58;95095.75;;;23.61;71.51
15477;BME280;7840;42.702;23.296;2022-07-25T01:45:26;95092.38;;;23.64;71.51
15477;BME280;7840;42.702;23.296;2022-07-25T01:47:53;95092.25;;;23.81;70.59
15477;BME280;7840;42.702;23.296;2022-07-25T01:50:22;95090.41;;;23.94;69.54
15477;BME280;7840;42.702;23.296;2022-07-25T01:52:50;95096.06;;;23.80;70.25
15477;BME280;7840;42.702;23.296;2022-07-25T01:55:20;95094.91;;;23.90;69.80
15477;BME280;7840;42.702;23.296;2022-07-25T01:57:48;95096.88;;;23.81;70.15
15477;BME280;7840;42.702;23.296;2022-07-25T02:00:16;95096.34;;;23.87;70.01
15477;BME280;7840;42.702;23.296;2022-07-25T02:02:58;95098.06;;;23.92;69.80
15477;BME280;7840;42.702;23.296;2022-07-25T02:05:43;95091.88;;;23.91;69.07
15477;BME280;7840;42.702;23.296;2022-07-25T02:08:11;95092.78;;;23.95;68.56
15477;BME280;7840;42.702;23.296;2022-07-25T02:10:40;95089.50;;;23.90;68.51
15477;BME280;7840;42.702;23.296;2022-07-25T02:13:09;95101.75;;;23.87;68.74
15477;BME280;7840;42.702;23.296;2022-07-25T02:15:37;95096.81;;;23.89;68.52
15477;BME280;7840;42.702;23.296;2022-07-25T02:18:05;95091.88;;;23.91;67.72
15477;BME280;7840;42.702;23.296;2022-07-25T02:20:35;95094.38;;;23.76;67.96
15477;BME280;7840;42.702;23.296;2022-07-25T02:23:03;95102.53;;;23.67;68.62
15477;BME280;7840;42.702;23.296;2022-07-25T02:25:41;95098.53;;;23.43;69.92
15477;BME280;7840;42.702;23.296;2022-07-25T02:28:09;95108.22;;;23.44;70.29
15477;BME280;7840;42.702;23.296;2022-07-25T02:30:37;95100.34;;;23.31;70.37
15477;BME280;7840;42.702;23.296;2022-07-25T02:33:05;95101.81;;;23.28;70.42
15477;BME280;7840;42.702;23.296;2022-07-25T02:35:32;95096.00;;;23.38;69.77
15477;BME280;7840;42.702;23.296;2022-07-25T02:38:00;95099.28;;;23.23;70.22
15477;BME280;7840;42.702;23.296;2022-07-25T02:40:28;95084.47;;;23.29;70.07
15477;BME280;7840;42.702;23.296;2022-07-25T02:42:57;95086.97;;;23.34;69.79
15477;BME280;7840;42.702;23.296;2022-07-25T02:45:25;95095.31;;;23.20;70.26
15477;BME280;7840;42.702;23.296;2022-07-25T02:47:53;95091.13;;;23.32;69.87
15477;BME280;7840;42.702;23.296;2022-07-25T02:50:20;95099.94;;;23.20;70.00
15477;BME280;7840;42.702;23.296;2022-07-25T02:52:50;95095.97;;;23.17;70.34
15477;BME280;7840;42.702;23.296;2022-07-25T02:55:18;95097.47;;;22.98;71.03
15477;BME280;7840;42.702;23.296;2022-07-25T02:57:45;95098.56;;;23.05;70.71
15477;BME280;7840;42.702;23.296;2022-07-25T03:00:15;95098.13;;;22.95;70.98
15477;BME280;7840;42.702;23.296;2022-07-25T03:02:44;95100.19;;;22.98;70.97
15477;BME280;7840;42.702;23.296;2022-07-25T03:05:13;95100.22;;;22.80;71.79
15477;BME280;7840;42.702;23.296;2022-07-25T03:07:43;95092.63;;;22.74;72.06
15477;BME280;7840;42.702;23.296;2022-07-25T03:10:12;95095.78;;;22.76;71.93
15477;BME280;7840;42.702;23.296;2022-07-25T03:12:41;95098.22;;;22.60;72.82
15477;BME280;7840;42.702;23.296;2022-07-25T03:15:11;95099.81;;;22.44;73.32
15477;BME280;7840;42.702;23.296;2022-07-25T03:17:40;95100.19;;;22.33;74.27
15477;BME280;7840;42.702;23.296;2022-07-25T03:20:09;95106.22;;;22.30;74.46
15477;BME280;7840;42.702;23.296;2022-07-25T03:22:42;95105.75;;;22.20;74.91
15477;BME280;7840;42.702;23.296;2022-07-25T03:25:10;95107.66;;;22.19;75.01
15477;BME280;7840;42.702;23.296;2022-07-25T03:27:38;95104.47;;;22.26;74.49
15477;BME280;7840;42.702;23.296;2022-07-25T03:30:06;95104.63;;;22.29;74.18
15477;BME280;7840;42.702;23.296;2022-07-25T03:32:37;95098.59;;;22.32;74.35
15477;BME280;7840;42.702;23.296;2022-07-25T03:35:08;95102.91;;;22.25;74.07
15477;BME280;7840;42.702;23.296;2022-07-25T03:37:36;95102.22;;;22.36;73.97
15477;BME280;7840;42.702;23.296;2022-07-25T03:40:04;95103.53;;;22.30;73.58
15477;BME280;7840;42.702;23.296;2022-07-25T03:42:32;95111.94;;;22.29;74.11
15477;BME280;7840;42.702;23.296;2022-07-25T03:45:00;95102.88;;;22.33;73.86
15477;BME280;7840;42.702;23.296;2022-07-25T03:47:28;95106.34;;;22.43;73.46
15477;BME280;7840;42.702;23.296;2022-07-25T03:49:58;95105.53;;;22.51;72.84
15477;BME280;7840;42.702;23.296;2022-07-25T03:52:27;95113.97;;;22.41;73.08
15477;BME280;7840;42.702;23.296;2022-07-25T03:54:54;95111.78;;;22.34;73.05
15477;BME280;7840;42.702;23.296;2022-07-25T03:57:28;95107.47;;;22.33;73.30
15477;BME280;7840;42.702;23.296;2022-07-25T04:00:13;95115.09;;;22.39;72.96
15477;BME280;7840;42.702;23.296;2022-07-25T04:02:41;95112.69;;;22.47;72.33
15477;BME280;7840;42.702;23.296;2022-07-25T04:05:09;95118.06;;;22.55;72.14
15477;BME280;7840;42.702;23.296;2022-07-25T04:07:38;95114.88;;;22.62;71.71
15477;BME280;7840;42.702;23.296;2022-07-25T04:10:07;95114.72;;;22.67;71.43
15477;BME280;7840;42.702;23.296;2022-07-25T04:12:35;95105.34;;;22.64;71.18
15477;BME280;7840;42.702;23.296;2022-07-25T04:15:10;95112.66;;;22.64;70.80
15477;BME280;7840;42.702;23.296;2022-07-25T04:17:38;95111.03;;;22.80;70.77
15477;BME280;7840;42.702;23.296;2022-07-25T04:20:07;95110.19;;;22.97;69.05
15477;BME280;7840;42.702;23.296;2022-07-25T04:22:35;95109.06;;;23.07;68.28
15477;BME280;7840;42.702;23.296;2022-07-25T04:25:06;95107.94;;;23.08;68.05
15477;BME280;7840;42.702;23.296;2022-07-25T04:27:34;95108.06;;;23.11;66.84
15477;BME280;7840;42.702;23.296;2022-07-25T04:30:01;95106.72;;;23.26;67.11
15477;BME280;7840;42.702;23.296;2022-07-25T04:32:29;95102.44;;;23.25;66.75
15477;BME280;7840;42.702;23.296;2022-07-25T04:34:57;95101.53;;;23.21;65.93
15477;BME280;7840;42.702;23.296;2022-07-25T04:37:25;95101.66;;;23.25;66.21
15477;BME280;7840;42.702;23.296;2022-07-25T04:39:52;95099.19;;;23.40;65.36
15477;BME280;7840;42.702;23.296;2022-07-25T04:42:21;95102.63;;;23.50;64.88
15477;BME280;7840;42.702;23.296;2022-07-25T04:44:49;95110.69;;;23.58;64.46
15477;BME280;7840;42.702;23.296;2022-07-25T04:47:19;95111.78;;;23.66;64.96
15477;BME280;7840;42.702;23.296;2022-07-25T04:49:49;95107.31;;;23.70;64.64
15477;BME280;7840;42.702;23.296;2022-07-25T04:52:17;95110.72;;;23.79;64.17
15477;BME280;7840;42.702;23.296;2022-07-25T04:54:45;95109.72;;;23.63;64.03
15477;BME280;7840;42.702;23.296;2022-07-25T04:57:28;95114.56;;;23.78;63.91
15477;BME280;7840;42.702;23.296;2022-07-25T04:59:56;95112.72;;;23.91;63.59
15477;BME280;7840;42.702;23.296;2022-07-25T05:02:26;95107.94;;;23.88;63.48
15477;BME280;7840;42.702;23.296;2022-07-25T05:04:54;95111.41;;;23.97;63.18
15477;BME280;7840;42.702;23.296;2022-07-25T05:07:22;95106.72;;;23.85;63.16
15477;BME280;7840;42.702;23.296;2022-07-25T05:09:50;95109.88;;;23.87;63.04
15477;BME280;7840;42.702;23.296;2022-07-25T05:12:20;95114.44;;;23.95;62.80
15477;BME280;7840;42.702;23.296;2022-07-25T05:14:49;95104.53;;;23.99;62.49
15477;BME280;7840;42.702;23.296;2022-07-25T05:17:36;95110.63;;;23.96;62.49
15477;BME280;7840;42.702;23.296;2022-07-25T05:20:07;95109.69;;;23.92;62.75
15477;BME280;7840;42.702;23.296;2022-07-25T05:22:35;95121.22;;;24.01;62.48
15477;BME280;7840;42.702;23.296;2022-07-25T05:25:07;95115.47;;;24.24;62.76
15477;BME280;7840;42.702;23.296;2022-07-25T05:27:37;95116.53;;;24.11;61.71
15477;BME280;7840;42.702;23.296;2022-07-25T05:30:08;95118.09;;;24.33;61.27
15477;BME280;7840;42.702;23.296;2022-07-25T05:32:36;95123.78;;;24.40;60.91
15477;BME280;7840;42.702;23.296;2022-07-25T05:35:06;95112.44;;;24.46;60.71
15477;BME280;7840;42.702;23.296;2022-07-25T05:37:34;95113.00;;;24.52;60.22
15477;BME280;7840;42.702;23.296;2022-07-25T05:40:03;95114.69;;;24.44;60.06
15477;BME280;7840;42.702;23.296;2022-07-25T05:42:31;95107.41;;;24.57;60.44
15477;BME280;7840;42.702;23.296;2022-07-25T05:44:59;95112.50;;;24.71;60.34
15477;BME280;7840;42.702;23.296;2022-07-25T05:47:31;95118.03;;;24.74;60.25
15477;BME280;7840;42.702;23.296;2022-07-25T05:50:09;95109.28;;;25.02;59.76
15477;BME280;7840;42.702;23.296;2022-07-25T05:52:47;95111.59;;;25.12;58.89
15477;BME280;7840;42.702;23.296;2022-07-25T05:55:15;95106.31;;;24.95;57.02
15477;BME280;7840;42.702;23.296;2022-07-25T05:57:43;95111.19;;;25.01;56.28
15477;BME280;7840;42.702;23.296;2022-07-25T06:00:11;95106.03;;;25.08;56.32
15477;BME280;7840;42.702;23.296;2022-07-25T06:02:41;95101.06;;;25.23;56.56
15477;BME280;7840;42.702;23.296;2022-07-25T06:05:09;95097.91;;;25.21;55.45
15477;BME280;7840;42.702;23.296;2022-07-25T06:07:37;95101.06;;;25.10;55.99
15477;BME280;7840;42.702;23.296;2022-07-25T06:10:05;95097.44;;;25.31;56.22
15477;BME280;7840;42.702;23.296;2022-07-25T06:12:33;95088.19;;;25.32;55.80
15477;BME280;7840;42.702;23.296;2022-07-25T06:15:05;95098.47;;;25.51;55.35
15477;BME280;7840;42.702;23.296;2022-07-25T06:17:32;95097.44;;;25.68;55.20
15477;BME280;7840;42.702;23.296;2022-07-25T06:20:02;95095.59;;;25.72;55.31
15477;BME280;7840;42.702;23.296;2022-07-25T06:22:30;95093.38;;;25.25;56.10
15477;BME280;7840;42.702;23.296;2022-07-25T06:24:58;95094.16;;;25.37;55.58
15477;BME280;7840;42.702;23.296;2022-07-25T06:27:27;95095.66;;;25.47;56.06
15477;BME280;7840;42.702;23.296;2022-07-25T06:29:55;95092.81;;;25.56;55.11
15477;BME280;7840;42.702;23.296;2022-07-25T06:32:26;95092.72;;;25.28;55.44
15477;BME280;7840;42.702;23.296;2022-07-25T06:34:53;95085.69;;;25.51;54.92
15477;BME280;7840;42.702;23.296;2022-07-25T06:37:40;95088.41;;;25.76;54.78
15477;BME280;7840;42.702;23.296;2022-07-25T06:40:12;95090.19;;;25.84;54.67
15477;BME280;7840;42.702;23.296;2022-07-25T06:42:41;95090.06;;;26.21;53.94
15477;BME280;7840;42.702;23.296;2022-07-25T06:45:11;95091.75;;;26.25;53.20
15477;BME280;7840;42.702;23.296;2022-07-25T06:47:56;95079.69;;;26.10;54.62
15477;BME280;7840;42.702;23.296;2022-07-25T06:50:27;95083.94;;;26.24;54.17
15477;BME280;7840;42.702;23.296;2022-07-25T06:53:08;95070.53;;;26.43;53.82
15477;BME280;7840;42.702;23.296;2022-07-25T06:55:35;95085.13;;;26.10;54.16
15477;BME280;7840;42.702;23.296;2022-07-25T06:58:03;95077.41;;;26.12;53.40
15477;BME280;7840;42.702;23.296;2022-07-25T07:00:31;95076.16;;;26.50;53.47
15477;BME280;7840;42.702;23.296;2022-07-25T07:03:00;95080.16;;;26.40;53.21
15477;BME280;7840;42.702;23.296;2022-07-25T07:05:30;95081.63;;;26.66;52.60
15477;BME280;7840;42.702;23.296;2022-07-25T07:07:59;95073.47;;;26.82;51.34
15477;BME280;7840;42.702;23.296;2022-07-25T07:10:27;95072.28;;;27.11;51.22
15477;BME280;7840;42.702;23.296;2022-07-25T07:13:09;95076.13;;;27.10;50.55
15477;BME280;7840;42.702;23.296;2022-07-25T07:15:39;95070.78;;;27.13;50.66
15477;BME280;7840;42.702;23.296;2022-07-25T07:18:27;95071.66;;;27.33;49.81
15477;BME280;7840;42.702;23.296;2022-07-25T07:20:57;95067.38;;;27.51;50.31
15477;BME280;7840;42.702;23.296;2022-07-25T07:23:30;95072.97;;;27.39;50.23
15477;BME280;7840;42.702;23.296;2022-07-25T07:26:01;95064.09;;;26.95;50.09
15477;BME280;7840;42.702;23.296;2022-07-25T07:28:37;95067.59;;;26.80;49.31
15477;BME280;7840;42.702;23.296;2022-07-25T07:31:06;95059.88;;;27.29;49.33
15477;BME280;7840;42.702;23.296;2022-07-25T07:33:36;95070.25;;;27.39;48.58
15477;BME280;7840;42.702;23.296;2022-07-25T07:36:04;95066.00;;;27.42;47.60
15477;BME280;7840;42.702;23.296;2022-07-25T07:38:34;95061.63;;;27.53;47.65
15477;BME280;7840;42.702;23.296;2022-07-25T07:41:04;95064.34;;;27.53;47.61
15477;BME280;7840;42.702;23.296;2022-07-25T07:43:37;95054.78;;;27.78;46.90
15477;BME280;7840;42.702;23.296;2022-07-25T07:46:06;95059.25;;;27.87;46.92
15477;BME280;7840;42.702;23.296;2022-07-25T07:48:34;95056.53;;;28.06;47.28
15477;BME280;7840;42.702;23.296;2022-07-25T07:51:15;95066.22;;;28.23;46.15
15477;BME280;7840;42.702;23.296;2022-07-25T07:53:45;95056.94;;;28.27;45.09
15477;BME280;7840;42.702;23.296;2022-07-25T07:56:33;95055.44;;;28.30;45.44
15477;BME280;7840;42.702;23.296;2022-07-25T07:59:01;95055.75;;;28.67;44.46
15477;BME280;7840;42.702;23.296;2022-07-25T08:01:41;95061.22;;;28.67;44.82
15477;BME280;7840;42.702;23.296;2022-07-25T08:04:08;95060.13;;;28.72;44.84
15477;BME280;7840;42.702;23.296;2022-07-25T08:06:36;95057.94;;;28.58;44.35
15477;BME280;7840;42.702;23.296;2022-07-25T08:09:05;95061.41;;;28.16;45.71
15477;BME280;7840;42.702;23.296;2022-07-25T08:11:33;95051.66;;;27.96;46.00
15477;BME280;7840;42.702;23.296;2022-07-25T08:14:06;95062.72;;;28.42;45.27
15477;BME280;7840;42.702;23.296;2022-07-25T08:16:38;95057.34;;;28.68;45.21
15477;BME280;7840;42.702;23.296;2022-07-25T08:19:06;95059.75;;;28.50;44.21
15477;BME280;7840;42.702;23.296;2022-07-25T08:21:34;95066.44;;;28.33;44.32
15477;BME280;7840;42.702;23.296;2022-07-25T08:24:01;95053.16;;;28.94;44.18
15477;BME280;7840;42.702;23.296;2022-07-25T08:26:34;95056.44;;;29.29;42.97
15477;BME280;7840;42.702;23.296;2022-07-25T08:29:15;95059.94;;;29.30;42.21
15477;BME280;7840;42.702;23.296;2022-07-25T08:31:46;95054.25;;;29.38;41.99
15477;BME280;7840;42.702;23.296;2022-07-25T08:34:25;95051.53;;;29.65;41.90
15477;BME280;7840;42.702;23.296;2022-07-25T08:36:52;95040.34;;;29.47;43.18
15477;BME280;7840;42.702;23.296;2022-07-25T08:39:20;95054.16;;;29.58;42.46
15477;BME280;7840;42.702;23.296;2022-07-25T08:41:49;95054.19;;;29.88;41.28
15477;BME280;7840;42.702;23.296;2022-07-25T08:44:21;95048.63;;;30.11;41.17
15477;BME280;7840;42.702;23.296;2022-07-25T08:46:49;95046.09;;;29.42;41.47
15477;BME280;7840;42.702;23.296;2022-07-25T08:49:16;95051.56;;;29.42;41.62
15477;BME280;7840;42.702;23.296;2022-07-25T08:51:50;95045.72;;;29.66;40.59
15477;BME280;7840;42.702;23.296;2022-07-25T08:54:26;95043.59;;;30.13;40.44
15477;BME280;7840;42.702;23.296;2022-07-25T08:57:10;95044.66;;;30.38;40.18
15477;BME280;7840;42.702;23.296;2022-07-25T08:59:41;95047.50;;;29.55;41.13
15477;BME280;7840;42.702;23.296;2022-07-25T09:02:17;95038.50;;;29.28;41.76
15477;BME280;7840;42.702;23.296;2022-07-25T09:04:45;95038.41;;;29.74;41.45
15477;BME280;7840;42.702;23.296;2022-07-25T09:07:13;95037.09;;;29.94;41.54
15477;BME280;7840;42.702;23.296;2022-07-25T09:09:40;95032.66;;;29.83;41.25
15477;BME280;7840;42.702;23.296;2022-07-25T09:12:11;95035.06;;;30.18;40.88
15477;BME280;7840;42.702;23.296;2022-07-25T09:14:44;95025.38;;;29.94;41.43
15477;BME280;7840;42.702;23.296;2022-07-25T09:17:13;95014.25;;;30.43;40.90
15477;BME280;7840;42.702;23.296;2022-07-25T09:19:51;95024.69;;;30.68;39.98
15477;BME280;7840;42.702;23.296;2022-07-25T09:22:19;95016.91;;;30.36;40.21
15477;BME280;7840;42.702;23.296;2022-07-25T09:24:50;95014.75;;;30.19;40.18
15477;BME280;7840;42.702;23.296;2022-07-25T09:27:19;95019.50;;;29.62;39.84
15477;BME280;7840;42.702;23.296;2022-07-25T09:32:31;95005.78;;;30.56;38.89
15477;BME280;7840;42.702;23.296;2022-07-25T09:34:59;95006.19;;;30.98;38.07
15477;BME280;7840;42.702;23.296;2022-07-25T09:37:27;94998.91;;;31.17;37.63
15477;BME280;7840;42.702;23.296;2022-07-25T09:39:57;95014.91;;;31.15;37.61
15477;BME280;7840;42.702;23.296;2022-07-25T09:42:39;95012.69;;;31.27;37.99
15477;BME280;7840;42.702;23.296;2022-07-25T09:45:09;95011.38;;;31.11;38.00
15477;BME280;7840;42.702;23.296;2022-07-25T09:47:50;95012.22;;;30.74;38.39
15477;BME280;7840;42.702;23.296;2022-07-25T09:50:21;95005.28;;;30.84;37.01
15477;BME280;7840;42.702;23.296;2022-07-25T09:52:50;95006.50;;;31.41;36.32
15477;BME280;7840;42.702;23.296;2022-07-25T09:55:19;95001.13;;;31.52;35.58
15477;BME280;7840;42.702;23.296;2022-07-25T09:57:49;94996.19;;;31.79;36.07
15477;BME280;7840;42.702;23.296;2022-07-25T10:00:21;95006.84;;;30.85;37.92
15477;BME280;7840;42.702;23.296;2022-07-25T10:02:55;95005.06;;;30.25;38.06
15477;BME280;7840;42.702;23.296;2022-07-25T10:05:43;94999.13;;;30.16;38.59
15477;BME280;7840;42.702;23.296;2022-07-25T10:08:13;94998.69;;;30.47;37.89
15477;BME280;7840;42.702;23.296;2022-07-25T10:10:45;94998.47;;;31.15;36.74
15477;BME280;7840;42.702;23.296;2022-07-25T10:13:20;94999.50;;;31.47;35.53
15477;BME280;7840;42.702;23.296;2022-07-25T10:16:15;95004.31;;;31.65;35.67
15477;BME280;7840;42.702;23.296;2022-07-25T10:19:05;94994.13;;;31.07;36.14
15477;BME280;7840;42.702;23.296;2022-07-25T10:21:53;94978.81;;;31.53;35.97
15477;BME280;7840;42.702;23.296;2022-07-25T10:24:32;94987.31;;;32.18;35.09
15477;BME280;7840;42.702;23.296;2022-07-25T10:27:07;94983.19;;;32.91;33.21
15477;BME280;7840;42.702;23.296;2022-07-25T10:29:40;94980.44;;;33.16;32.94
15477;BME280;7840;42.702;23.296;2022-07-25T10:32:09;94985.88;;;32.66;33.15
15477;BME280;7840;42.702;23.296;2022-07-25T10:34:38;94977.28;;;33.00;32.65
15477;BME280;7840;42.702;23.296;2022-07-25T10:37:13;94970.22;;;33.20;32.81
15477;BME280;7840;42.702;23.296;2022-07-25T10:39:43;94969.31;;;33.84;32.72
15477;BME280;7840;42.702;23.296;2022-07-25T10:42:15;94971.31;;;33.66;31.90
15477;BME280;7840;42.702;23.296;2022-07-25T10:44:48;94973.13;;;31.91;33.83
15477;BME280;7840;42.702;23.296;2022-07-25T10:47:34;94976.50;;;31.00;34.56
15477;BME280;7840;42.702;23.296;2022-07-25T10:50:03;94964.84;;;31.11;34.78
15477;BME280;7840;42.702;23.296;2022-07-25T10:52:43;94958.38;;;32.27;33.16
15477;BME280;7840;42.702;23.296;2022-07-25T10:55:22;94968.63;;;32.62;31.91
15477;BME280;7840;42.702;23.296;2022-07-25T10:57:59;94968.94;;;32.29;31.33
15477;BME280;7840;42.702;23.296;2022-07-25T11:00:30;94970.41;;;31.94;31.65
15477;BME280;7840;42.702;23.296;2022-07-25T11:02:59;94949.09;;;32.89;30.41
15477;BME280;7840;42.702;23.296;2022-07-25T11:05:27;94942.97;;;33.87;29.43
15477;BME280;7840;42.702;23.296;2022-07-25T11:07:58;94952.03;;;33.91;29.29
15477;BME280;7840;42.702;23.296;2022-07-25T11:10:27;94951.56;;;34.69;28.32
15477;BME280;7840;42.702;23.296;2022-07-25T11:12:55;94946.06;;;34.69;28.98
15477;BME280;7840;42.702;23.296;2022-07-25T11:15:23;94950.56;;;33.33;30.42
15477;BME280;7840;42.702;23.296;2022-07-25T11:17:53;94947.56;;;31.62;33.23
15477;BME280;7840;42.702;23.296;2022-07-25T11:20:38;94943.94;;;32.84;31.78
15477;BME280;7840;42.702;23.296;2022-07-25T11:23:06;94941.16;;;33.48;31.18
15477;BME280;7840;42.702;23.296;2022-07-25T11:25:33;94940.41;;;32.73;31.25
15477;BME280;7840;42.702;23.296;2022-07-25T11:28:01;94943.44;;;32.10;31.61
15477;BME280;7840;42.702;23.296;2022-07-25T11:30:29;94929.47;;;32.98;30.95
15477;BME280;7840;42.702;23.296;2022-07-25T11:32:59;94931.75;;;33.31;30.31
15477;BME280;7840;42.702;23.296;2022-07-25T11:35:29;94923.44;;;33.70;29.25
15477;BME280;7840;42.702;23.296;2022-07-25T11:37:59;94919.06;;;33.84;29.91
15477;BME280;7840;42.702;23.296;2022-07-25T11:40:28;94921.91;;;33.55;30.76
15477;BME280;7840;42.702;23.296;2022-07-25T11:42:57;94913.56;;;33.84;30.50
15477;BME280;7840;42.702;23.296;2022-07-25T11:45:28;94916.28;;;33.91;30.60
15477;BME280;7840;42.702;23.296;2022-07-25T11:48:05;94922.25;;;33.71;31.14
15477;BME280;7840;42.702;23.296;2022-07-25T11:50:35;94915.50;;;34.57;29.83
15477;BME280;7840;42.702;23.296;2022-07-25T11:53:04;94919.06;;;33.84;31.00
15477;BME280;7840;42.702;23.296;2022-07-25T11:55:37;94913.00;;;34.14;30.65
15477;BME280;7840;42.702;23.296;2022-07-25T11:58:17;94915.75;;;35.21;29.76
15477;BME280;7840;42.702;23.296;2022-07-25T12:00:46;94910.50;;;35.68;28.21
15477;BME280;7840;42.702;23.296;2022-07-25T12:05:48;94909.56;;;33.99;30.58
15477;BME280;7840;42.702;23.296;2022-07-25T12:08:17;94899.09;;;34.39;30.06
15477;BME280;7840;42.702;23.296;2022-07-25T12:10:47;94907.09;;;34.15;30.76
15477;BME280;7840;42.702;23.296;2022-07-25T12:13:22;94899.13;;;34.35;30.15
15477;BME280;7840;42.702;23.296;2022-07-25T12:15:52;94910.25;;;32.62;32.75
15477;BME280;7840;42.702;23.296;2022-07-25T12:18:24;94899.22;;;32.08;33.31
15477;BME280;7840;42.702;23.296;2022-07-25T12:21:09;94902.78;;;32.84;33.09
15477;BME280;7840;42.702;23.296;2022-07-25T12:23:38;94904.38;;;32.92;31.41
15477;BME280;7840;42.702;23.296;2022-07-25T12:26:07;94893.28;;;33.49;30.76
15477;BME280;7840;42.702;23.296;2022-07-25T12:28:39;94882.59;;;34.39;29.69
15477;BME280;7840;42.702;23.296;2022-07-25T12:31:07;94887.00;;;34.77;29.48
15477;BME280;7840;42.702;23.296;2022-07-25T12:34:07;94883.78;;;35.96;27.48
15477;BME280;7840;42.702;23.296;2022-07-25T12:36:35;94884.88;;;36.02;27.38
15477;BME280;7840;42.702;23.296;2022-07-25T12:39:09;94886.63;;;35.20;27.63
15477;BME280;7840;42.702;23.296;2022-07-25T12:41:39;94877.34;;;34.62;28.66
15477;BME280;7840;42.702;23.296;2022-07-25T12:44:09;94885.41;;;35.25;28.72
15477;BME280;7840;42.702;23.296;2022-07-25T12:46:40;94875.28;;;35.83;28.22
15477;BME280;7840;42.702;23.296;2022-07-25T12:49:12;94876.44;;;33.33;30.44
15477;BME280;7840;42.702;23.296;2022-07-25T12:51:40;94869.41;;;33.21;31.10
15477;BME280;7840;42.702;23.296;2022-07-25T12:54:08;94873.81;;;32.97;32.14
15477;BME280;7840;42.702;23.296;2022-07-25T12:56:37;94875.38;;;32.41;33.53
15477;BME280;7840;42.702;23.296;2022-07-25T12:59:08;94871.84;;;33.01;32.10
15477;BME280;7840;42.702;23.296;2022-07-25T13:01:39;94862.31;;;34.18;30.56
15477;BME280;7840;42.702;23.296;2022-07-25T13:04:06;94862.06;;;34.99;29.88
15477;BME280;7840;42.702;23.296;2022-07-25T13:06:36;94854.66;;;35.64;28.99
15477;BME280;7840;42.702;23.296;2022-07-25T13:09:04;94854.75;;;35.19;29.19
15477;BME280;7840;42.702;23.296;2022-07-25T13:11:32;94853.50;;;34.38;30.30
15477;BME280;7840;42.702;23.296;2022-07-25T13:14:00;94855.81;;;34.50;30.15
15477;BME280;7840;42.702;23.296;2022-07-25T13:16:28;94857.66;;;34.12;30.00
15477;BME280;7840;42.702;23.296;2022-07-25T13:18:56;94849.78;;;35.07;29.37
15477;BME280;7840;42.702;23.296;2022-07-25T13:21:27;94854.50;;;36.32;27.11
15477;BME280;7840;42.702;23.296;2022-07-25T13:23:58;94847.97;;;34.90;28.36